Time;durP1;ratioP1;P1;durP2;ratioP2;P2;SDS_P1;SDS_P2;PMS_P1;PMS_P2;Temp;Humidity;BMP_temperature;BMP_pressure;BME280_temperature;BME280_humidity;BME280_pressure;Samples;Min_cycle;Max_cycle;Signal;HPM_P1;HPM_P2
2023/08/30 00:00:14;;;;;;;12.95;11.63;;;;;;;-148.88;100.00;-17125.47;4995095;28;20034;-75
2023/08/30 00:02:40;;;;;;;12.13;10.82;;;;;;;-148.88;100.00;-17125.47;4994768;28;20026;-76
2023/08/30 00:05:06;;;;;;;12.70;11.40;;;;;;;-148.88;100.00;-17125.47;4994689;28;20030;-75
2023/08/30 00:07:31;;;;;;;13.98;12.45;;;;;;;-148.88;100.00;-17125.47;4995979;28;20026;-75
2023/08/30 00:09:58;;;;;;;14.13;11.20;;;;;;;-148.88;100.00;-17125.47;4996177;28;20024;-75
2023/08/30 00:12:24;;;;;;;14.07;11.95;;;;;;;-148.88;100.00;-17125.47;4996015;28;20117;-75
2023/08/30 00:14:50;;;;;;;12.57;11.27;;;;;;;-148.88;100.00;-17125.47;4994856;28;20037;-74
2023/08/30 00:17:16;;;;;;;15.32;12.48;;;;;;;-148.88;100.00;-17125.47;4994711;28;20057;-75
2023/08/30 00:19:41;;;;;;;13.65;12.23;;;;;;;-148.88;100.00;-17125.47;4994597;28;20026;-75
2023/08/30 00:22:09;;;;;;;13.88;12.35;;;;;;;-148.88;100.00;-17125.47;4996074;28;20026;-75
2023/08/30 00:24:35;;;;;;;14.68;12.57;;;;;;;-148.88;100.00;-17125.47;4994428;28;20057;-75
2023/08/30 00:27:02;;;;;;;15.27;13.13;;;;;;;-148.88;100.00;-17125.47;4995599;28;20074;-75
2023/08/30 00:29:28;;;;;;;15.40;13.77;;;;;;;-148.88;100.00;-17125.47;4995810;28;20154;-75
2023/08/30 00:31:54;;;;;;;15.63;14.02;;;;;;;-148.88;100.00;-17125.47;4995665;28;20058;-75
2023/08/30 00:34:20;;;;;;;15.10;13.40;;;;;;;-148.88;100.00;-17125.47;4995738;28;20042;-75
2023/08/30 00:36:45;;;;;;;16.90;15.20;;;;;;;-148.88;100.00;-17125.47;4994683;28;20026;-75
2023/08/30 00:39:10;;;;;;;17.08;14.73;;;;;;;-148.88;100.00;-17125.47;4994396;28;20469;-75
2023/08/30 00:41:36;;;;;;;17.38;15.57;;;;;;;-148.88;100.00;-17125.47;4994175;28;20107;-75
2023/08/30 00:44:01;;;;;;;17.77;15.88;;;;;;;-148.88;100.00;-17125.47;4994099;28;20112;-75
2023/08/30 00:46:28;;;;;;;17.52;15.68;;;;;;;-148.88;100.00;-17125.47;4994122;28;20023;-75
2023/08/30 00:48:53;;;;;;;17.90;16.00;;;;;;;-148.88;100.00;-17125.47;4994438;28;20511;-75
2023/08/30 00:51:20;;;;;;;16.80;15.10;;;;;;;-148.88;100.00;-17125.47;4995551;28;20058;-75
2023/08/30 00:53:46;;;;;;;17.40;15.70;;;;;;;-148.88;100.00;-17125.47;4995314;28;20033;-75
2023/08/30 00:56:11;;;;;;;17.38;15.40;;;;;;;-148.88;100.00;-17125.47;4995417;28;20022;-75
2023/08/30 00:58:38;;;;;;;18.65;15.82;;;;;;;-148.88;100.00;-17125.47;4993873;28;20026;-75
2023/08/30 01:01:07;;;;;;;18.45;16.55;;;;;;;-148.88;100.00;-17125.47;4995215;28;20030;-75
2023/08/30 01:03:34;;;;;;;18.30;16.02;;;;;;;-148.88;100.00;-17125.47;4993776;28;20026;-75
2023/08/30 01:05:59;;;;;;;18.75;16.65;;;;;;;-148.88;100.00;-17125.47;4994993;28;20037;-75
2023/08/30 01:08:25;;;;;;;21.90;16.90;;;;;;;-148.88;100.00;-17125.47;4995014;28;20026;-75
2023/08/30 01:11:13;;;;;;;20.00;17.90;;;;;;;-148.88;100.00;-17125.47;4993168;28;20030;-75
2023/08/30 01:13:44;;;;;;;18.98;16.98;;;;;;;-148.88;100.00;-17125.47;4994876;28;20520;-75
2023/08/30 01:16:11;;;;;;;19.08;17.05;;;;;;;-148.88;100.00;-17125.47;4995037;28;20031;-75
2023/08/30 01:18:39;;;;;;;21.00;17.98;;;;;;;-148.88;100.00;-17125.47;4994995;28;20029;-75
2023/08/30 01:21:11;;;;;;;19.83;17.50;;;;;;;-148.88;100.00;-17125.47;4994852;28;20482;-75
2023/08/30 01:23:49;;;;;;;21.63;18.58;;;;;;;-148.88;100.00;-17125.47;4994778;28;20031;-75
2023/08/30 01:26:26;;;;;;;20.88;17.27;;;;;;;-148.88;100.00;-17125.47;4993377;28;20022;-74
2023/08/30 01:28:55;;;;;;;19.40;17.38;;;;;;;-148.88;100.00;-17125.47;4994549;28;20050;-74
2023/08/30 01:31:22;;;;;;;19.30;17.17;;;;;;;-148.88;100.00;-17125.47;4993327;28;20027;-74
2023/08/30 01:33:50;;;;;;;21.33;18.15;;;;;;;-148.88;100.00;-17125.47;4993175;28;20508;-74
2023/08/30 01:36:16;;;;;;;20.45;17.83;;;;;;;-148.88;100.00;-17125.47;4994608;28;20058;-75
2023/08/30 01:38:42;;;;;;;19.45;17.42;;;;;;;-148.88;100.00;-17125.47;4992983;28;20062;-75
2023/08/30 01:41:08;;;;;;;19.33;17.20;;;;;;;-148.88;100.00;-17125.47;4993097;28;20033;-75
2023/08/30 01:43:35;;;;;;;20.40;18.15;;;;;;;-148.88;100.00;-17125.47;4994537;28;20110;-75
2023/08/30 01:46:02;;;;;;;20.77;18.20;;;;;;;-148.88;100.00;-17125.47;4992958;28;20030;-75
2023/08/30 01:48:29;;;;;;;19.85;17.35;;;;;;;-148.88;100.00;-17125.47;4994217;28;20441;-74
2023/08/30 01:50:58;;;;;;;19.65;17.55;;;;;;;-148.88;100.00;-17125.47;4992911;28;20022;-74
2023/08/30 01:53:25;;;;;;;19.80;17.73;;;;;;;-148.88;100.00;-17125.47;4994186;28;20045;-74
2023/08/30 01:55:50;;;;;;;21.48;18.95;;;;;;;-148.88;100.00;-17125.47;4994053;28;20065;-75
2023/08/30 01:58:16;;;;;;;20.23;18.10;;;;;;;-148.88;100.00;-17125.47;4992678;28;20078;-75
2023/08/30 02:00:41;;;;;;;20.45;18.20;;;;;;;-148.88;100.00;-17125.47;4992643;28;20029;-75
2023/08/30 02:03:11;;;;;;;19.15;17.15;;;;;;;-148.88;100.00;-17125.47;4993902;28;20031;-74
2023/08/30 02:05:43;;;;;;;20.20;18.00;;;;;;;-148.88;100.00;-17125.47;4993999;28;20031;-74
2023/08/30 02:08:22;;;;;;;20.17;17.90;;;;;;;-148.88;100.00;-17125.47;4994161;28;20022;-74
2023/08/30 02:10:59;;;;;;;21.92;18.48;;;;;;;-148.88;100.00;-17125.47;4993847;28;20026;-74
2023/08/30 02:13:29;;;;;;;20.70;17.08;;;;;;;-148.88;100.00;-17125.47;4993890;28;20042;-74
2023/08/30 02:15:56;;;;;;;20.75;18.65;;;;;;;-148.88;100.00;-17125.47;4992540;28;20026;-74
2023/08/30 02:18:23;;;;;;;18.40;15.85;;;;;;;-148.88;100.00;-17125.47;4993638;28;20113;-75
2023/08/30 02:20:49;;;;;;;20.10;17.77;;;;;;;-148.88;100.00;-17125.47;4993597;28;20508;-75
2023/08/30 02:23:14;;;;;;;21.40;18.13;;;;;;;-148.88;100.00;-17125.47;4992091;28;20038;-74
2023/08/30 02:25:40;;;;;;;20.33;17.95;;;;;;;-148.88;100.00;-17125.47;4993372;28;20037;-74
2023/08/30 02:28:05;;;;;;;21.25;17.70;;;;;;;-148.88;100.00;-17125.47;4993429;28;20168;-74
2023/08/30 02:30:30;;;;;;;20.85;18.45;;;;;;;-148.88;100.00;-17125.47;4992288;28;20030;-74
2023/08/30 02:32:56;;;;;;;20.33;17.98;;;;;;;-148.88;100.00;-17125.47;4992154;28;20023;-74
2023/08/30 02:35:21;;;;;;;22.70;18.27;;;;;;;-148.88;100.00;-17125.47;4992095;28;20018;-74
2023/08/30 02:37:47;;;;;;;20.60;18.27;;;;;;;-148.88;100.00;-17125.47;4993362;28;20018;-74
2023/08/30 02:40:12;;;;;;;20.83;18.63;;;;;;;-148.88;100.00;-17125.47;4993288;28;20026;-74
2023/08/30 02:42:37;;;;;;;22.27;18.15;;;;;;;-148.88;100.00;-17125.47;4993373;28;20029;-74
2023/08/30 02:45:03;;;;;;;20.52;17.67;;;;;;;-148.88;100.00;-17125.47;4993217;28;20031;-74
2023/08/30 02:47:28;;;;;;;19.83;17.17;;;;;;;-148.88;100.00;-17125.47;4991781;28;20022;-74
2023/08/30 02:49:54;;;;;;;19.40;17.30;;;;;;;-148.88;100.00;-17125.47;4993168;28;20026;-74
2023/08/30 02:52:19;;;;;;;20.17;17.45;;;;;;;-148.88;100.00;-17125.47;4993216;28;20034;-75
2023/08/30 02:54:44;;;;;;;20.33;16.30;;;;;;;-148.88;100.00;-17125.47;4992289;28;20113;-74
2023/08/30 02:57:10;;;;;;;19.58;17.08;;;;;;;-148.88;100.00;-17125.47;4993090;28;20026;-74
2023/08/30 02:59:35;;;;;;;19.27;17.20;;;;;;;-148.88;100.00;-17125.47;4991843;28;20030;-74
2023/08/30 03:02:01;;;;;;;20.58;18.23;;;;;;;-148.88;100.00;-17125.47;4993117;28;20500;-75
2023/08/30 03:04:27;;;;;;;19.73;17.63;;;;;;;-148.88;100.00;-17125.47;4991773;28;20485;-74
2023/08/30 03:06:52;;;;;;;20.65;18.25;;;;;;;-148.88;100.00;-17125.47;4992973;28;20105;-75
2023/08/30 03:09:18;;;;;;;21.80;18.52;;;;;;;-148.88;100.00;-17125.47;4991645;28;20164;-74
2023/08/30 03:11:43;;;;;;;19.92;17.73;;;;;;;-148.88;100.00;-17125.47;4991545;28;20030;-75
2023/08/30 03:14:09;;;;;;;21.77;18.60;;;;;;;-148.88;100.00;-17125.47;4991643;28;20659;-74
2023/08/30 03:16:34;;;;;;;21.83;18.40;;;;;;;-148.88;100.00;-17125.47;4991742;28;20027;-74
2023/08/30 03:19:00;;;;;;;23.10;18.83;;;;;;;-148.88;100.00;-17125.47;4991577;28;20471;-74
2023/08/30 03:21:25;;;;;;;20.08;17.30;;;;;;;-148.88;100.00;-17125.47;4992131;28;20058;-74
2023/08/30 03:23:51;;;;;;;22.65;18.35;;;;;;;-148.88;100.00;-17125.47;4991525;28;20022;-74
2023/08/30 03:26:16;;;;;;;19.65;16.80;;;;;;;-148.88;100.00;-17125.47;4993027;28;20085;-76
2023/08/30 03:28:43;;;;;;;22.15;17.77;;;;;;;-148.88;100.00;-17125.47;4991431;28;20121;-75
2023/08/30 03:31:16;;;;;;;19.00;16.85;;;;;;;-148.88;100.00;-17125.47;4992840;28;20030;-75
2023/08/30 03:33:42;;;;;;;19.42;17.13;;;;;;;-148.88;100.00;-17125.47;4993067;28;20033;-74
2023/08/30 03:36:10;;;;;;;21.30;17.50;;;;;;;-148.88;100.00;-17125.47;4996929;28;20101;-74
2023/08/30 03:38:35;;;;;;;22.45;17.40;;;;;;;-148.88;100.00;-17125.47;4996587;28;20026;-74
2023/08/30 03:41:01;;;;;;;19.80;17.45;;;;;;;-148.88;100.00;-17125.47;4995697;28;20049;-74
2023/08/30 03:43:26;;;;;;;20.08;16.20;;;;;;;-148.88;100.00;-17125.47;4996829;28;20058;-74
2023/08/30 03:45:52;;;;;;;19.27;16.23;;;;;;;-148.88;100.00;-17125.47;4996480;28;20026;-74
2023/08/30 03:48:18;;;;;;;20.10;16.88;;;;;;;-148.88;100.00;-17125.47;4996488;28;20034;-74
2023/08/30 03:50:43;;;;;;;18.10;16.13;;;;;;;-148.88;100.00;-17125.47;4996448;28;20053;-76
2023/08/30 03:53:08;;;;;;;23.23;17.85;;;;;;;-148.88;100.00;-17125.47;4996046;28;20050;-75
2023/08/30 03:55:34;;;;;;;21.70;17.33;;;;;;;-148.88;100.00;-17125.47;4996424;28;20408;-74
2023/08/30 03:57:59;;;;;;;25.33;18.40;;;;;;;-148.88;100.00;-17125.47;4994970;28;20117;-76
2023/08/30 04:00:24;;;;;;;22.02;19.00;;;;;;;-148.88;100.00;-17125.47;4994918;28;20022;-75
2023/08/30 04:02:50;;;;;;;21.55;17.92;;;;;;;-148.88;100.00;-17125.47;4994856;28;20483;-75
2023/08/30 04:05:16;;;;;;;20.90;18.45;;;;;;;-148.88;100.00;-17125.47;4995988;28;20029;-75
2023/08/30 04:07:41;;;;;;;22.98;19.95;;;;;;;-148.88;100.00;-17125.47;4996085;28;20031;-75
2023/08/30 04:10:07;;;;;;;24.90;19.50;;;;;;;-148.88;100.00;-17125.47;4994751;28;20018;-75
2023/08/30 04:12:34;;;;;;;24.50;19.95;;;;;;;-148.88;100.00;-17125.47;4994599;28;20026;-75
2023/08/30 04:15:04;;;;;;;23.20;19.77;;;;;;;-148.88;100.00;-17125.47;4994679;28;20044;-75
2023/08/30 04:17:30;;;;;;;23.35;19.67;;;;;;;-148.88;100.00;-17125.47;4994385;28;20559;-74
2023/08/30 04:19:56;;;;;;;25.73;20.95;;;;;;;-148.88;100.00;-17125.47;4995827;28;20469;-75
2023/08/30 04:22:22;;;;;;;25.10;20.90;;;;;;;-148.88;100.00;-17125.47;4995846;28;20507;-75
2023/08/30 04:24:48;;;;;;;24.92;21.58;;;;;;;-148.88;100.00;-17125.47;4995876;28;20026;-75
2023/08/30 04:27:14;;;;;;;24.55;20.90;;;;;;;-148.88;100.00;-17125.47;4994285;28;20659;-75
2023/08/30 04:29:39;;;;;;;24.35;20.33;;;;;;;-148.88;100.00;-17125.47;4994724;28;20053;-74
2023/08/30 04:32:05;;;;;;;24.67;20.35;;;;;;;-148.88;100.00;-17125.47;4995976;28;20026;-75
2023/08/30 04:34:32;;;;;;;22.67;19.75;;;;;;;-148.88;100.00;-17125.47;4994678;28;20029;-74
2023/08/30 04:36:57;;;;;;;24.55;20.65;;;;;;;-148.88;100.00;-17125.47;4995484;28;20029;-75
2023/08/30 04:39:22;;;;;;;26.88;21.38;;;;;;;-148.88;100.00;-17125.47;4995519;28;20026;-75
2023/08/30 04:41:48;;;;;;;24.67;20.20;;;;;;;-148.88;100.00;-17125.47;4994281;28;20030;-75
2023/08/30 04:44:14;;;;;;;22.55;19.80;;;;;;;-148.88;100.00;-17125.47;4994082;28;20121;-75
2023/08/30 04:46:39;;;;;;;23.08;19.85;;;;;;;-148.88;100.00;-17125.47;4995149;28;20054;-75
2023/08/30 04:49:05;;;;;;;25.80;20.38;;;;;;;-148.88;100.00;-17125.47;4994005;28;20382;-75
2023/08/30 04:51:31;;;;;;;21.85;19.45;;;;;;;-148.88;100.00;-17125.47;4994067;28;20022;-75
2023/08/30 04:53:57;;;;;;;23.83;20.65;;;;;;;-148.88;100.00;-17125.47;4994156;28;20076;-75
2023/08/30 04:56:23;;;;;;;24.17;20.65;;;;;;;-148.88;100.00;-17125.47;4994076;28;20056;-75
2023/08/30 04:58:49;;;;;;;25.65;22.40;;;;;;;-148.88;100.00;-17125.47;4995155;28;20514;-75
2023/08/30 05:01:15;;;;;;;27.00;22.50;;;;;;;-148.88;100.00;-17125.47;4995049;28;20499;-75
2023/08/30 05:03:41;;;;;;;25.27;21.70;;;;;;;-148.88;100.00;-17125.47;4995294;28;20049;-75
2023/08/30 05:06:07;;;;;;;25.38;21.77;;;;;;;-148.88;100.00;-17125.47;4995142;28;20497;-75
2023/08/30 05:08:32;;;;;;;25.38;22.63;;;;;;;-148.88;100.00;-17125.47;4994033;28;20455;-75
2023/08/30 05:10:57;;;;;;;27.67;23.30;;;;;;;-148.88;100.00;-17125.47;4994902;28;20033;-75
2023/08/30 05:13:23;;;;;;;34.70;24.35;;;;;;;-148.88;100.00;-17125.47;4993488;28;20104;-75
2023/08/30 05:15:48;;;;;;;29.70;24.35;;;;;;;-148.88;100.00;-17125.47;4994942;28;20022;-75
2023/08/30 05:18:14;;;;;;;30.75;23.85;;;;;;;-148.88;100.00;-17125.47;4993399;28;20041;-75
2023/08/30 05:20:40;;;;;;;31.48;24.25;;;;;;;-148.88;100.00;-17125.47;4993346;28;20034;-75
2023/08/30 05:23:05;;;;;;;28.75;23.77;;;;;;;-148.88;100.00;-17125.47;4994687;28;20022;-75
2023/08/30 05:25:31;;;;;;;28.48;23.90;;;;;;;-148.88;100.00;-17125.47;4994499;28;20113;-75
2023/08/30 05:27:56;;;;;;;31.30;25.40;;;;;;;-148.88;100.00;-17125.47;4993229;28;20023;-75
2023/08/30 05:30:21;;;;;;;29.88;23.17;;;;;;;-148.88;100.00;-17125.47;4993229;28;20038;-75
2023/08/30 05:32:47;;;;;;;29.27;24.55;;;;;;;-148.88;100.00;-17125.47;4994474;28;20388;-75
2023/08/30 05:35:12;;;;;;;28.67;23.92;;;;;;;-148.88;100.00;-17125.47;4994481;28;20030;-75
2023/08/30 05:37:38;;;;;;;30.88;25.85;;;;;;;-148.88;100.00;-17125.47;4993142;28;20089;-75
2023/08/30 05:40:03;;;;;;;30.63;25.45;;;;;;;-148.88;100.00;-17125.47;4994680;28;20029;-75
2023/08/30 05:42:29;;;;;;;28.60;24.23;;;;;;;-148.88;100.00;-17125.47;4993105;28;20022;-75
2023/08/30 05:44:54;;;;;;;32.15;24.38;;;;;;;-148.88;100.00;-17125.47;4994192;28;20422;-75
2023/08/30 05:47:20;;;;;;;28.85;23.90;;;;;;;-148.88;100.00;-17125.47;4992940;28;20397;-75
2023/08/30 05:49:48;;;;;;;29.67;23.80;;;;;;;-148.88;100.00;-17125.47;4994259;28;20042;-75
2023/08/30 05:52:16;;;;;;;27.73;23.77;;;;;;;-148.88;100.00;-17125.47;4994192;28;20026;-75
2023/08/30 05:54:42;;;;;;;29.27;23.17;;;;;;;-148.88;100.00;-17125.47;4994185;28;20393;-75
2023/08/30 05:57:07;;;;;;;31.58;24.50;;;;;;;-148.88;100.00;-17125.47;4993492;28;20022;-75
2023/08/30 05:59:34;;;;;;;29.92;23.73;;;;;;;-148.88;100.00;-17125.47;4992804;28;20033;-75
2023/08/30 06:02:00;;;;;;;29.98;24.17;;;;;;;-148.88;100.00;-17125.47;4994001;28;20186;-75
2023/08/30 06:04:25;;;;;;;31.35;24.77;;;;;;;-148.88;100.00;-17125.47;4992622;28;20032;-76
2023/08/30 06:06:51;;;;;;;28.83;23.80;;;;;;;-148.88;100.00;-17125.47;4993834;28;20485;-74
2023/08/30 06:09:17;;;;;;;27.30;23.40;;;;;;;-148.88;100.00;-17125.47;4992254;28;20030;-74
2023/08/30 06:11:42;;;;;;;30.90;24.08;;;;;;;-148.88;100.00;-17125.47;4993626;28;20401;-75
2023/08/30 06:14:07;;;;;;;30.67;24.60;;;;;;;-148.88;100.00;-17125.47;4993795;28;20041;-75
2023/08/30 06:16:33;;;;;;;30.08;24.10;;;;;;;-148.88;100.00;-17125.47;4993598;28;20089;-75
2023/08/30 06:18:59;;;;;;;31.35;25.58;;;;;;;-148.88;100.00;-17125.47;4993729;28;20030;-75
2023/08/30 06:21:25;;;;;;;30.08;25.40;;;;;;;-148.88;100.00;-17125.47;4993757;28;20064;-74
2023/08/30 06:23:51;;;;;;;34.47;26.08;;;;;;;-148.88;100.00;-17125.47;4993566;28;20030;-75
2023/08/30 06:26:16;;;;;;;34.13;25.08;;;;;;;-148.88;100.00;-17125.47;4992235;28;20022;-75
2023/08/30 06:28:44;;;;;;;35.13;25.98;;;;;;;-148.88;100.00;-17125.47;4993560;28;20030;-75
2023/08/30 06:31:10;;;;;;;34.97;27.10;;;;;;;-148.88;100.00;-17125.47;4993571;28;20481;-75
2023/08/30 06:33:35;;;;;;;33.75;26.17;;;;;;;-148.88;100.00;-17125.47;4992144;28;20064;-75
2023/08/30 06:36:01;;;;;;;34.17;26.05;;;;;;;-148.88;100.00;-17125.47;4993761;28;20465;-74
2023/08/30 06:38:26;;;;;;;32.20;26.50;;;;;;;-148.88;100.00;-17125.47;4993297;28;20040;-75
2023/08/30 06:40:53;;;;;;;34.70;27.40;;;;;;;-148.88;100.00;-17125.47;4993328;28;20015;-75
2023/08/30 06:43:19;;;;;;;33.50;26.52;;;;;;;-148.88;100.00;-17125.47;4993397;28;20505;-74
2023/08/30 06:45:44;;;;;;;34.35;26.48;;;;;;;-148.88;100.00;-17125.47;4993195;28;20062;-75
2023/08/30 06:48:10;;;;;;;33.40;27.30;;;;;;;-148.88;100.00;-17125.47;4993098;28;20081;-75
2023/08/30 06:50:36;;;;;;;35.50;27.33;;;;;;;-148.88;100.00;-17125.47;4993265;28;20027;-75
2023/08/30 06:53:03;;;;;;;33.30;26.13;;;;;;;-148.88;100.00;-17125.47;4993226;28;20028;-75
2023/08/30 06:55:28;;;;;;;33.58;25.58;;;;;;;-148.88;100.00;-17125.47;4993832;28;20503;-74
2023/08/30 06:57:53;;;;;;;31.02;25.58;;;;;;;-148.88;100.00;-17125.47;4993138;28;20545;-74
2023/08/30 07:00:19;;;;;;;33.13;25.55;;;;;;;-148.88;100.00;-17125.47;4991949;28;20029;-75
2023/08/30 07:02:45;;;;;;;34.85;26.58;;;;;;;-148.88;100.00;-17125.47;4993216;28;20034;-75
2023/08/30 07:05:14;;;;;;;32.45;26.50;;;;;;;-148.88;100.00;-17125.47;4993048;28;20034;-74
2023/08/30 07:07:40;;;;;;;35.08;26.13;;;;;;;-148.88;100.00;-17125.47;4993135;28;20058;-75
2023/08/30 07:10:06;;;;;;;35.00;26.25;;;;;;;-148.88;100.00;-17125.47;4995380;28;20449;-74
2023/08/30 07:12:31;;;;;;;34.22;26.38;;;;;;;-148.88;100.00;-17125.47;4996871;28;20034;-75
2023/08/30 07:14:57;;;;;;;34.53;25.67;;;;;;;-148.88;100.00;-17125.47;4997236;28;20026;-74
2023/08/30 07:17:22;;;;;;;33.00;25.42;;;;;;;-148.88;100.00;-17125.47;4996826;28;20018;-74
2023/08/30 07:19:49;;;;;;;32.78;25.23;;;;;;;-148.88;100.00;-17125.47;4996775;28;20101;-75
2023/08/30 07:22:16;;;;;;;32.17;24.60;;;;;;;-148.88;100.00;-17125.47;4996814;28;20026;-74
2023/08/30 07:24:43;;;;;;;29.08;23.67;;;;;;;-148.88;100.00;-17125.47;4995726;28;20442;-75
2023/08/30 07:27:09;;;;;;;27.02;22.63;;;;;;;-148.88;100.00;-17125.47;4994857;28;20026;-74
2023/08/30 07:29:35;;;;;;;27.52;22.05;;;;;;;-148.88;100.00;-17125.47;4996582;28;20022;-75
2023/08/30 07:32:01;;;;;;;28.77;23.90;;;;;;;-148.88;100.00;-17125.47;4996761;28;20037;-74
2023/08/30 07:34:27;;;;;;;27.55;21.75;;;;;;;-148.88;100.00;-17125.47;4996618;28;20026;-75
2023/08/30 07:36:55;;;;;;;26.20;21.17;;;;;;;-148.88;100.00;-17125.47;4996637;28;20046;-75
2023/08/30 07:39:21;;;;;;;28.42;21.95;;;;;;;-148.88;100.00;-17125.47;4995301;28;20490;-75
2023/08/30 07:41:47;;;;;;;25.67;20.02;;;;;;;-148.88;100.00;-17125.47;4996804;28;20026;-74
2023/08/30 07:44:13;;;;;;;24.48;19.00;;;;;;;-148.88;100.00;-17125.47;4995228;28;20080;-74
2023/08/30 07:46:38;;;;;;;25.15;19.08;;;;;;;-148.88;100.00;-17125.47;4996381;28;20035;-75
2023/08/30 07:49:06;;;;;;;23.17;18.92;;;;;;;-148.88;100.00;-17125.47;4996394;28;20034;-75
2023/08/30 07:51:32;;;;;;;27.15;18.10;;;;;;;-148.88;100.00;-17125.47;4996234;28;20026;-75
2023/08/30 07:53:57;;;;;;;21.30;16.63;;;;;;;-148.88;100.00;-17125.47;4996296;28;20034;-74
2023/08/30 07:56:23;;;;;;;21.67;16.98;;;;;;;-148.88;100.00;-17125.47;4996363;28;20029;-74
2023/08/30 07:58:49;;;;;;;21.05;15.77;;;;;;;-148.88;100.00;-17125.47;4994813;28;20026;-75
2023/08/30 08:01:14;;;;;;;19.90;15.90;;;;;;;-148.88;100.00;-17125.47;4996282;28;20053;-74
2023/08/30 08:03:43;;;;;;;19.77;15.80;;;;;;;-148.88;100.00;-17125.47;4996133;28;20072;-75
2023/08/30 08:06:08;;;;;;;22.17;16.95;;;;;;;-148.88;100.00;-17125.47;4996049;28;20392;-75
2023/08/30 08:08:34;;;;;;;21.52;16.35;;;;;;;-148.88;100.00;-17125.47;4996107;28;20402;-75
2023/08/30 08:10:59;;;;;;;19.92;17.05;;;;;;;-148.88;100.00;-17125.47;4994710;28;20505;-75
2023/08/30 08:13:25;;;;;;;21.40;16.63;;;;;;;-148.88;100.00;-17125.47;4995875;28;20029;-76
2023/08/30 08:15:51;;;;;;;19.27;15.00;;;;;;;-148.88;100.00;-17125.47;4995855;28;20061;-75
2023/08/30 08:18:17;;;;;;;17.95;15.05;;;;;;;-148.88;100.00;-17125.47;4995859;28;20057;-75
2023/08/30 08:20:43;;;;;;;19.23;14.77;;;;;;;-148.88;100.00;-17125.47;4995314;28;20444;-75
2023/08/30 08:23:08;;;;;;;15.25;12.82;;;;;;;-148.88;100.00;-17125.47;4995828;28;20049;-75
2023/08/30 08:25:34;;;;;;;18.95;15.15;;;;;;;-148.88;100.00;-17125.47;4995642;28;20034;-75
2023/08/30 08:27:59;;;;;;;18.23;14.77;;;;;;;-148.88;100.00;-17125.47;4995875;28;20026;-75
2023/08/30 08:30:25;;;;;;;19.85;15.23;;;;;;;-148.88;100.00;-17125.47;4994353;28;20026;-75
2023/08/30 08:32:50;;;;;;;20.02;14.93;;;;;;;-148.88;100.00;-17125.47;4995555;28;20022;-75
2023/08/30 08:35:16;;;;;;;18.58;14.82;;;;;;;-148.88;100.00;-17125.47;4994246;28;20026;-75
2023/08/30 08:37:41;;;;;;;18.80;14.40;;;;;;;-148.88;100.00;-17125.47;4995453;28;20508;-75
2023/08/30 08:40:10;;;;;;;16.90;13.20;;;;;;;-148.88;100.00;-17125.47;4995613;28;20026;-74
2023/08/30 08:42:37;;;;;;;20.98;14.93;;;;;;;-148.88;100.00;-17125.47;4995419;28;20018;-75
2023/08/30 08:45:04;;;;;;;18.23;14.02;;;;;;;-148.88;100.00;-17125.47;4995530;28;20090;-75
2023/08/30 08:47:31;;;;;;;17.75;14.18;;;;;;;-148.88;100.00;-17125.47;4995331;28;20165;-75
2023/08/30 08:49:56;;;;;;;20.75;14.57;;;;;;;-148.88;100.00;-17125.47;4995279;28;20026;-75
2023/08/30 08:52:24;;;;;;;16.75;13.35;;;;;;;-148.88;100.00;-17125.47;4995226;28;20156;-75
2023/08/30 08:54:50;;;;;;;17.42;14.55;;;;;;;-148.88;100.00;-17125.47;4993849;28;20030;-75
2023/08/30 08:57:17;;;;;;;19.25;14.20;;;;;;;-148.88;100.00;-17125.47;4993781;28;20033;-75
2023/08/30 08:59:43;;;;;;;20.73;15.75;;;;;;;-148.88;100.00;-17125.47;4995159;28;20041;-75
2023/08/30 09:02:13;;;;;;;19.55;14.60;;;;;;;-148.88;100.00;-17125.47;4993696;28;20022;-75
2023/08/30 09:04:40;;;;;;;19.02;14.07;;;;;;;-148.88;100.00;-17125.47;4995034;28;20026;-75
2023/08/30 09:07:05;;;;;;;18.42;15.00;;;;;;;-148.88;100.00;-17125.47;4993593;28;20101;-75
2023/08/30 09:09:31;;;;;;;22.52;18.08;;;;;;;-148.88;96.16;-17125.47;4995009;28;20500;-75
2023/08/30 09:14:26;;;;;;;23.75;18.95;;;;;;;-148.88;98.30;-17125.47;5004319;23;20061;-75
2023/08/30 09:17:00;;;;;;;23.50;18.90;;;;;;;-148.88;97.08;-17125.47;4994832;28;20030;-75
2023/08/30 09:19:26;;;;;;;22.83;17.85;;;;;;;-148.88;98.79;-17125.47;4975630;28;20023;-76
2023/08/30 09:21:57;;;;;;;22.25;17.05;;;;;;;-148.88;96.70;-17125.47;5013125;23;20038;-75
2023/08/30 09:24:22;;;;;;;22.38;17.02;;;;;;;-148.88;97.51;-17125.47;4994625;28;20026;-76
2023/08/30 09:26:52;;;;;;;20.45;16.55;;;;;;;-148.88;95.68;-17125.47;4994615;28;20033;-76
2023/08/30 09:29:19;;;;;;;20.73;16.42;;;;;;;-148.88;95.04;-17125.47;4993264;28;20034;-75
2023/08/30 09:31:50;;;;;;;21.17;16.08;;;;;;;-148.88;91.77;-17125.47;4992668;28;20112;-75
2023/08/30 09:34:16;;;;;;;19.92;15.30;;;;;;;-148.88;90.97;-17125.47;5010930;23;20046;-77
2023/08/30 09:36:42;;;;;;;18.92;14.88;;;;;;;-148.88;91.33;-17125.47;4996610;28;20021;-78
2023/08/30 09:39:09;;;;;;;19.15;14.57;;;;;;;-148.88;91.26;-17125.47;4997078;28;20362;-78
2023/08/30 09:41:35;;;;;;;19.98;14.27;;;;;;;-148.88;87.99;-17125.47;4997682;28;20031;-78
2023/08/30 09:44:10;;;;;;;16.60;13.05;;;;;;;-148.88;88.44;-17125.47;4997939;28;20085;-79
2023/08/30 09:46:46;;;;;;;13.77;11.23;;;;;;;-148.88;79.15;-17125.47;4996816;28;20022;-78
2023/08/30 09:49:12;;;;;;;14.45;11.05;;;;;;;-148.88;79.61;-17125.47;4997406;28;20105;-79
2023/08/30 09:51:42;;;;;;;14.38;10.95;;;;;;;-148.88;80.35;-17125.47;4996326;28;20026;-78
2023/08/30 09:54:17;;;;;;;12.93;10.95;;;;;;;-148.88;78.22;-17125.47;4997244;28;20032;-78
2023/08/30 09:56:44;;;;;;;14.55;11.30;;;;;;;-148.88;83.06;-17125.47;4997798;28;20124;-78
2023/08/30 09:59:14;;;;;;;15.55;12.07;;;;;;;-148.88;84.45;-17125.47;4996220;28;20030;-78
2023/08/30 10:01:41;;;;;;;16.63;12.38;;;;;;;-148.88;85.14;-17125.47;4996260;28;20126;-79
2023/08/30 10:04:10;;;;;;;14.52;11.18;;;;;;;-148.88;84.41;-17125.47;4998060;28;20030;-79
2023/08/30 10:06:39;;;;;;;12.82;9.60;;;;;;;-148.88;81.06;-17125.47;4995516;28;20362;-77
2023/08/30 10:09:10;;;;;;;16.20;10.93;;;;;;;-148.88;82.78;-17125.47;4994458;28;20022;-78
2023/08/30 10:11:38;;;;;;;16.45;12.02;;;;;;;-148.88;82.41;-17125.47;4996269;28;20164;-78
2023/08/30 10:14:05;;;;;;;14.55;12.52;;;;;;;-148.88;84.29;-17125.47;4996036;28;20023;-79
2023/08/30 10:16:51;;;;;;;14.93;12.65;;;;;;;-148.88;83.99;-17125.47;4995579;28;20477;-78
2023/08/30 10:19:27;;;;;;;16.33;12.15;;;;;;;-148.88;83.69;-17125.47;4995173;28;20045;-78
2023/08/30 10:22:04;;;;;;;16.27;11.40;;;;;;;-148.88;83.58;-17125.47;4996454;28;20473;-78
2023/08/30 10:24:54;;;;;;;16.83;12.65;;;;;;;-148.88;82.09;-17125.47;4996454;28;20045;-79
2023/08/30 10:27:21;;;;;;;16.08;11.77;;;;;;;-148.88;82.54;-17125.47;4996515;28;20038;-77
2023/08/30 10:29:49;;;;;;;16.27;12.25;;;;;;;-148.88;80.69;-17125.47;4995694;28;20034;-79
2023/08/30 10:32:21;;;;;;;18.38;13.30;;;;;;;-148.88;79.82;-17125.47;4995062;28;20445;-77
2023/08/30 10:34:51;;;;;;;16.17;12.48;;;;;;;-148.88;81.86;-17125.47;4995672;28;20042;-80
2023/08/30 10:37:26;;;;;;;16.38;12.63;;;;;;;-148.88;86.25;-17125.47;4995498;28;20018;-78
2023/08/30 10:39:52;;;;;;;16.77;12.70;;;;;;;-148.88;84.51;-17125.47;4996068;28;20022;-78
2023/08/30 10:42:23;;;;;;;17.38;11.15;;;;;;;-148.88;83.94;-17125.47;4996154;28;20163;-78
2023/08/30 10:45:12;;;;;;;15.10;10.82;;;;;;;-148.88;83.24;-17125.47;4994593;28;20110;-78
2023/08/30 10:47:38;;;;;;;12.77;10.98;;;;;;;-148.88;85.74;-17125.47;4994306;28;20112;-77